createdAt,value
2023-03-13T00:00:25.059Z,12.25
2023-03-13T00:04:27.130Z,14.57
2023-03-13T00:08:30.095Z,16.70
2023-03-13T00:12:32.318Z,11.43
2023-03-13T00:16:35.628Z,13.50
2023-03-13T00:20:37.723Z,11.05
2023-03-13T00:24:39.710Z,17.13
2023-03-13T00:28:42.593Z,14.65
2023-03-13T00:32:46.278Z,13.80
2023-03-13T00:36:48.402Z,17.27
2023-03-13T00:40:58.116Z,8.10
2023-03-13T00:45:03.065Z,17.10
2023-03-13T00:49:05.858Z,13.93
2023-03-13T00:53:09.006Z,12.45
2023-03-13T00:57:11.188Z,12.93
2023-03-13T01:01:14.654Z,10.45
2023-03-13T01:05:16.687Z,14.30
2023-03-13T01:09:18.797Z,9.52
2023-03-13T01:13:20.780Z,9.52
2023-03-13T01:17:22.820Z,12.60
2023-03-13T01:21:25.858Z,13.10
2023-03-13T01:25:27.881Z,14.73
2023-03-13T01:29:29.918Z,10.93
2023-03-13T01:33:32.048Z,12.77
2023-03-13T01:37:34.112Z,14.68
2023-03-13T01:41:37.910Z,12.13
2023-03-13T01:46:04.407Z,13.68
2023-03-13T01:50:19.689Z,12.98
2023-03-13T01:54:40.578Z,9.27
2023-03-13T01:58:43.073Z,10.90
2023-03-13T02:02:49.096Z,11.85
2023-03-13T02:06:57.004Z,11.25
2023-03-13T02:11:39.533Z,13.05
2023-03-13T02:15:41.951Z,12.93
2023-03-13T02:19:48.286Z,14.20
2023-03-13T02:24:30.055Z,10.85
2023-03-13T02:28:35.884Z,12.35
2023-03-13T02:32:41.499Z,12.27
2023-03-13T02:36:45.731Z,10.60
2023-03-13T02:40:50.376Z,10.80
2023-03-13T02:44:52.531Z,11.35
2023-03-13T02:48:56.958Z,12.60
2023-03-13T02:53:07.037Z,10.82
2023-03-13T02:57:09.511Z,11.50
2023-03-13T03:01:11.661Z,12.70
2023-03-13T03:05:16.290Z,9.60
2023-03-13T03:09:20.019Z,8.80
2023-03-13T03:13:22.327Z,9.13
2023-03-13T03:17:24.377Z,9.00
2023-03-13T03:21:26.573Z,10.23
2023-03-13T03:25:28.631Z,8.88
2023-03-13T03:29:31.002Z,11.25
2023-03-13T03:33:34.775Z,10.30
2023-03-13T03:37:40.312Z,11.85
2023-03-13T03:41:42.474Z,8.23
2023-03-13T03:45:46.285Z,10.77
2023-03-13T03:49:49.159Z,10.27
2023-03-13T03:53:52.116Z,8.18
2023-03-13T03:57:54.441Z,5.93
2023-03-13T04:02:15.083Z,6.95
2023-03-13T04:06:18.898Z,9.88
2023-03-13T04:10:21.936Z,9.73
2023-03-13T04:14:24.033Z,8.88
2023-03-13T04:18:27.687Z,7.43
2023-03-13T04:22:29.840Z,5.22
2023-03-13T04:26:33.744Z,7.40
2023-03-13T04:30:36.420Z,7.47
2023-03-13T04:34:53.030Z,4.55
2023-03-13T04:39:16.543Z,4.88
2023-03-13T04:43:36.933Z,4.50
2023-03-13T04:47:46.426Z,2.05
2023-03-13T04:52:11.668Z,2.17
2023-03-13T04:56:42.630Z,2.13
2023-03-13T05:01:06.111Z,3.47
2023-03-13T05:05:26.533Z,2.42
2023-03-13T05:09:51.680Z,4.28
2023-03-13T05:14:16.576Z,2.97
2023-03-13T05:18:41.512Z,3.85
2023-03-13T05:23:02.309Z,1.80
2023-03-13T05:27:22.763Z,5.53
2023-03-13T05:31:38.252Z,4.82
2023-03-13T05:35:49.577Z,5.05
2023-03-13T05:40:10.855Z,3.67
2023-03-13T05:44:35.711Z,6.85
2023-03-13T05:48:55.561Z,4.97
2023-03-13T05:53:16.337Z,6.00
2023-03-13T05:57:48.513Z,5.80
2023-03-13T06:02:08.854Z,4.10
2023-03-13T06:06:15.612Z,3.05
2023-03-13T06:10:29.521Z,3.03
2023-03-13T06:14:31.981Z,4.53
2023-03-13T06:18:52.300Z,5.05
2023-03-13T06:22:54.341Z,3.70
2023-03-13T06:26:56.320Z,5.00
2023-03-13T06:31:06.211Z,3.05
2023-03-13T06:35:08.732Z,1.10
2023-03-13T06:39:12.050Z,4.57
2023-03-13T06:43:14.054Z,2.15
2023-03-13T06:47:16.137Z,3.67
2023-03-13T06:51:20.915Z,1.83
2023-03-13T06:55:24.368Z,1.85
2023-03-13T06:59:26.464Z,1.15
2023-03-13T07:03:28.541Z,2.97
2023-03-13T07:07:32.594Z,1.77
2023-03-13T07:11:34.735Z,0.85
2023-03-13T07:15:36.919Z,1.25
2023-03-13T07:19:38.912Z,0.80
2023-03-13T07:23:41.210Z,1.08
2023-03-13T07:27:43.324Z,0.35
2023-03-13T07:31:45.463Z,2.20
2023-03-13T07:35:49.243Z,2.85
2023-03-13T07:39:51.366Z,2.92
2023-03-13T07:43:53.411Z,2.67
2023-03-13T07:47:55.407Z,3.95
2023-03-13T07:51:57.677Z,3.50
2023-03-13T07:56:11.732Z,3.83
2023-03-13T08:00:16.818Z,3.42
2023-03-13T08:04:19.504Z,2.70
2023-03-13T08:08:21.567Z,3.70
2023-03-13T08:12:23.599Z,1.42
2023-03-13T08:16:31.744Z,1.20
2023-03-13T08:20:33.849Z,1.73
2023-03-13T08:24:35.907Z,1.65
2023-03-13T08:28:39.236Z,1.67
2023-03-13T08:32:41.325Z,1.90
2023-03-13T08:36:43.700Z,1.88
2023-03-13T08:40:45.704Z,3.13
2023-03-13T08:44:47.766Z,1.10
2023-03-13T08:48:51.649Z,1.23
2023-03-13T08:52:53.767Z,1.05
2023-03-13T08:56:55.828Z,2.40
2023-03-13T09:01:03.198Z,1.17
2023-03-13T09:09:08.115Z,2.95
2023-03-13T09:13:10.260Z,2.25
2023-03-13T09:17:12.256Z,1.42
2023-03-13T09:21:18.178Z,6.32
2023-03-13T09:25:20.237Z,2.67
2023-03-13T09:29:22.324Z,2.70
2023-03-13T09:33:24.320Z,4.43
2023-03-13T09:37:26.533Z,1.60
2023-03-13T09:41:43.699Z,1.92
2023-03-13T09:45:48.232Z,3.08
2023-03-13T09:49:57.012Z,3.85
2023-03-13T09:54:20.113Z,1.73
2023-03-13T09:58:25.796Z,3.08
2023-03-13T10:02:36.457Z,2.00
2023-03-13T10:06:41.810Z,3.78
2023-03-13T10:10:49.740Z,2.42
2023-03-13T10:15:17.314Z,1.70
2023-03-13T10:19:27.226Z,1.48
2023-03-13T10:23:57.761Z,1.30
2023-03-13T10:28:00.903Z,1.05
2023-03-13T10:32:05.924Z,1.40
2023-03-13T10:36:13.703Z,1.27
2023-03-13T10:40:25.417Z,2.95
2023-03-13T10:44:33.273Z,1.02
2023-03-13T10:48:37.636Z,0.98
2023-03-13T10:52:45.708Z,1.33
2023-03-13T10:56:48.120Z,2.03
2023-03-13T11:00:50.688Z,0.82
2023-03-13T11:04:54.043Z,1.15
2023-03-13T11:09:05.142Z,1.35
2023-03-13T11:13:36.444Z,0.70
2023-03-13T11:17:43.010Z,2.63
2023-03-13T11:21:57.240Z,2.72
2023-03-13T11:26:19.478Z,0.70
2023-03-13T11:30:44.220Z,1.92
2023-03-13T11:34:54.097Z,0.70
2023-03-13T11:39:11.617Z,1.08
2023-03-13T11:43:30.363Z,0.85
2023-03-13T11:48:07.966Z,0.85
2023-03-13T11:52:21.201Z,0.68
2023-03-13T11:56:32.556Z,0.40
2023-03-13T12:00:44.039Z,0.70
2023-03-13T12:04:54.488Z,1.67
2023-03-13T12:09:04.817Z,2.50
2023-03-13T12:13:34.519Z,1.17
2023-03-13T12:17:46.444Z,5.75
2023-03-13T12:21:54.655Z,1.63
2023-03-13T12:26:04.435Z,1.73
2023-03-13T12:30:42.199Z,1.65
2023-03-13T12:35:23.766Z,3.53
2023-03-13T12:39:50.032Z,2.47
2023-03-13T12:44:07.603Z,2.72
2023-03-13T12:48:43.517Z,2.53
2023-03-13T12:53:22.789Z,2.28
2023-03-13T12:58:06.482Z,3.75
2023-03-13T13:02:20.326Z,1.50
2023-03-13T13:06:23.023Z,2.35
2023-03-13T13:10:26.454Z,2.53
2023-03-13T13:14:28.424Z,4.03
2023-03-13T13:18:32.312Z,1.73
2023-03-13T13:22:36.624Z,4.38
2023-03-13T13:26:38.997Z,2.70
2023-03-13T13:30:41.351Z,3.20
2023-03-13T13:34:52.613Z,3.80
2023-03-13T13:38:55.665Z,3.08
2023-03-13T13:43:00.367Z,4.40
2023-03-13T13:47:03.194Z,2.90
2023-03-13T13:51:23.739Z,3.47
2023-03-13T13:55:48.683Z,2.13
2023-03-13T13:59:54.531Z,2.85
2023-03-13T14:04:13.234Z,2.70
2023-03-13T14:08:31.197Z,4.10
2023-03-13T14:12:38.689Z,2.17
2023-03-13T14:16:46.125Z,3.83
2023-03-13T14:21:03.041Z,3.83
2023-03-13T14:25:05.562Z,14.35
2023-03-13T14:29:15.543Z,11.00
2023-03-13T14:33:18.246Z,4.40
2023-03-13T14:38:01.163Z,3.92
2023-03-13T14:42:10.373Z,5.68
2023-03-13T14:46:31.863Z,16.15
2023-03-13T14:50:35.190Z,4.18
2023-03-13T14:54:58.994Z,6.80
2023-03-13T14:59:08.028Z,5.95
2023-03-13T15:03:16.928Z,21.40
2023-03-13T15:07:19.890Z,4.38
2023-03-13T15:11:34.705Z,4.60
2023-03-13T15:15:36.734Z,3.42
2023-03-13T15:19:38.780Z,1.98
2023-03-13T15:23:42.236Z,2.95
2023-03-13T15:27:44.745Z,4.57
2023-03-13T15:31:47.041Z,3.83
2023-03-13T15:35:50.411Z,2.53
2023-03-13T15:39:53.521Z,1.50
2023-03-13T15:43:56.943Z,1.38
2023-03-13T15:48:00.390Z,0.40
2023-03-13T15:52:02.419Z,1.27
2023-03-13T15:56:19.799Z,0.65
2023-03-13T16:00:25.826Z,3.55
2023-03-13T16:04:27.917Z,1.20
2023-03-13T16:08:36.143Z,0.85
2023-03-13T16:12:38.992Z,0.82
2023-03-13T16:16:41.054Z,0.60
2023-03-13T16:20:43.106Z,0.38
2023-03-13T16:24:45.236Z,0.50
2023-03-13T16:28:48.107Z,1.27
2023-03-13T16:32:50.618Z,0.88
2023-03-13T16:36:52.651Z,0.40
2023-03-13T16:40:54.632Z,0.80
2023-03-13T16:44:56.986Z,3.22
2023-03-13T16:48:59.723Z,1.48
2023-03-13T16:53:01.808Z,0.80
2023-03-13T16:57:04.388Z,0.63
2023-03-13T17:01:09.009Z,1.40
2023-03-13T17:05:12.495Z,1.80
2023-03-13T17:09:17.790Z,1.70
2023-03-13T17:13:20.407Z,1.95
2023-03-13T17:17:23.017Z,0.60
2023-03-13T17:21:28.894Z,0.85
2023-03-13T17:25:31.454Z,1.10
2023-03-13T17:29:33.513Z,0.60
2023-03-13T17:33:35.622Z,1.33
2023-03-13T17:37:37.618Z,1.50
2023-03-13T17:41:39.665Z,1.75
2023-03-13T17:45:41.800Z,1.77
2023-03-13T17:49:44.692Z,4.05
2023-03-13T17:53:47.160Z,1.15
2023-03-13T17:57:49.451Z,3.28
2023-03-13T18:01:51.624Z,2.17
2023-03-13T18:05:55.678Z,1.00
2023-03-13T18:09:57.738Z,1.88
2023-03-13T18:14:00.871Z,1.13
2023-03-13T18:18:03.045Z,2.60
2023-03-13T18:22:06.677Z,1.52
2023-03-13T18:26:30.121Z,1.08
2023-03-13T18:30:32.219Z,1.67
2023-03-13T18:34:35.076Z,2.03
2023-03-13T18:38:37.210Z,1.05
2023-03-13T18:42:39.475Z,1.55
2023-03-13T18:46:45.531Z,1.88
2023-03-13T18:50:47.511Z,1.45
2023-03-13T18:54:49.683Z,1.75
2023-03-13T18:58:53.469Z,1.13
2023-03-13T19:02:55.603Z,1.55
2023-03-13T19:06:57.592Z,1.27
2023-03-13T19:10:59.854Z,0.63
2023-03-13T19:15:01.905Z,1.00
2023-03-13T19:19:10.939Z,1.20
2023-03-13T19:23:12.945Z,1.38
2023-03-13T19:27:16.778Z,0.50
2023-03-13T19:31:18.886Z,1.08
2023-03-13T19:35:21.820Z,1.05
2023-03-13T19:39:25.950Z,0.75
2023-03-13T19:43:27.944Z,0.93
2023-03-13T19:47:29.972Z,2.53
2023-03-13T19:51:31.954Z,0.82
2023-03-13T19:55:33.949Z,1.77
2023-03-13T19:59:38.659Z,0.50
2023-03-13T20:03:41.122Z,0.70
2023-03-13T20:07:43.452Z,1.13
2023-03-13T20:11:45.533Z,3.85
2023-03-13T20:15:47.692Z,1.27
2023-03-13T20:19:49.741Z,0.98
2023-03-13T20:23:52.086Z,1.58
2023-03-13T20:27:54.857Z,0.82
2023-03-13T20:32:00.295Z,0.85
2023-03-13T20:36:09.302Z,1.00
2023-03-13T20:40:12.083Z,2.10
2023-03-13T20:44:14.208Z,2.55
2023-03-13T20:48:16.887Z,3.63
2023-03-13T20:52:18.876Z,1.77
2023-03-13T20:56:20.917Z,2.58
2023-03-13T21:00:23.650Z,2.08
2023-03-13T21:04:25.910Z,2.15
2023-03-13T21:08:27.981Z,2.15
2023-03-13T21:12:29.992Z,3.17
2023-03-13T21:16:32.092Z,0.80
2023-03-13T21:20:34.653Z,0.50
2023-03-13T21:24:36.930Z,0.90
2023-03-13T21:28:40.187Z,2.35
2023-03-13T21:32:42.251Z,3.58
2023-03-13T21:36:44.382Z,4.40
2023-03-13T21:40:46.392Z,1.05
2023-03-13T21:44:48.475Z,1.75
2023-03-13T21:48:50.506Z,0.95
2023-03-13T21:52:52.842Z,1.50
2023-03-13T21:56:54.844Z,1.90
2023-03-13T22:00:57.746Z,0.88
2023-03-13T22:05:01.303Z,1.17
2023-03-13T22:09:04.254Z,1.35
2023-03-13T22:13:12.322Z,0.50
2023-03-13T22:17:17.625Z,0.93
2023-03-13T22:21:19.832Z,1.17
2023-03-13T22:25:21.944Z,0.90
2023-03-13T22:29:24.108Z,0.85
2023-03-13T22:33:26.363Z,0.75
2023-03-13T22:37:28.436Z,1.17
2023-03-13T22:41:30.467Z,0.80
2023-03-13T22:45:34.011Z,3.13
2023-03-13T22:49:36.058Z,2.53
2023-03-13T22:53:39.953Z,3.20
2023-03-13T22:57:41.960Z,2.47
2023-03-13T23:01:44.061Z,2.17
2023-03-13T23:05:47.503Z,1.40
2023-03-13T23:09:49.618Z,3.20
2023-03-13T23:13:51.757Z,5.22
2023-03-13T23:17:53.846Z,3.15
2023-03-13T23:21:55.861Z,4.55
2023-03-13T23:26:03.443Z,3.47
2023-03-13T23:30:07.990Z,4.32
2023-03-13T23:34:10.091Z,3.28
2023-03-13T23:38:13.074Z,3.33
2023-03-13T23:42:15.069Z,4.47
2023-03-13T23:46:23.109Z,3.35
2023-03-13T23:50:25.247Z,2.22
2023-03-13T23:54:27.276Z,4.00
2023-03-13T23:58:29.297Z,5.15
